createdAt,value
2022-12-19T00:01:26.820Z,101546.84
2022-12-19T00:03:57.063Z,101549.16
2022-12-19T00:06:26.729Z,101545.00
2022-12-19T00:09:00.365Z,101546.00
2022-12-19T00:11:30.581Z,101548.41
2022-12-19T00:14:00.126Z,101545.06
2022-12-19T00:16:30.664Z,101541.09
2022-12-19T00:19:01.538Z,101531.94
2022-12-19T00:21:34.884Z,101533.31
2022-12-19T00:24:20.076Z,101525.75
2022-12-19T00:26:50.553Z,101529.41
2022-12-19T00:29:20.233Z,101522.13
2022-12-19T00:31:49.744Z,101512.84
2022-12-19T00:34:19.274Z,101510.63
2022-12-19T00:36:48.770Z,101502.09
2022-12-19T00:39:20.787Z,101512.72
2022-12-19T00:41:50.270Z,101526.44
2022-12-19T00:44:19.740Z,101512.78
2022-12-19T00:46:52.330Z,101511.09
2022-12-19T00:49:22.658Z,101506.19
2022-12-19T00:51:52.143Z,101516.28
2022-12-19T00:54:24.237Z,101509.34
2022-12-19T00:56:54.283Z,101508.13
2022-12-19T00:59:26.805Z,101506.84
2022-12-19T01:01:57.479Z,101509.00
2022-12-19T01:04:28.848Z,101499.59
2022-12-19T01:07:02.667Z,101496.41
2022-12-19T01:09:35.667Z,101495.16
2022-12-19T01:12:17.629Z,101501.91
2022-12-19T01:14:47.128Z,101515.31
2022-12-19T01:17:16.621Z,101516.47
2022-12-19T01:19:46.094Z,101517.19
2022-12-19T01:22:15.733Z,101524.09
2022-12-19T01:24:48.091Z,101510.38
2022-12-19T01:27:17.572Z,101509.28
2022-12-19T01:29:52.513Z,101506.38
2022-12-19T01:32:23.324Z,101493.97
2022-12-19T01:34:52.794Z,101487.00
2022-12-19T01:37:22.422Z,101477.47
2022-12-19T01:39:54.483Z,101489.25
2022-12-19T01:42:24.615Z,101477.41
2022-12-19T01:45:33.459Z,101481.28
2022-12-19T01:48:07.916Z,101483.97
2022-12-19T01:50:40.396Z,101485.53
2022-12-19T01:53:17.585Z,101484.34
2022-12-19T01:55:50.215Z,101480.50
2022-12-19T01:58:19.679Z,101470.16
2022-12-19T02:00:49.158Z,101459.78
2022-12-19T02:03:21.354Z,101459.41
2022-12-19T02:05:50.800Z,101495.44
2022-12-19T02:08:20.285Z,101496.47
2022-12-19T02:10:52.449Z,101485.34
2022-12-19T02:13:21.939Z,101480.81
2022-12-19T02:15:54.884Z,101480.13
2022-12-19T02:18:29.554Z,101467.84
2022-12-19T02:21:25.919Z,101455.06
2022-12-19T02:24:21.681Z,101456.66
2022-12-19T02:27:17.348Z,101459.16
2022-12-19T02:30:09.036Z,101461.09
2022-12-19T02:32:44.120Z,101450.00
2022-12-19T02:35:16.690Z,101444.06
2022-12-19T02:37:47.921Z,101449.16
2022-12-19T02:40:20.346Z,101443.69
2022-12-19T02:42:51.555Z,101445.25
2022-12-19T02:45:28.310Z,101451.63
2022-12-19T02:48:04.464Z,101447.13
2022-12-19T02:50:42.103Z,101450.47
2022-12-19T02:53:12.372Z,101447.84
2022-12-19T02:55:45.289Z,101437.00
2022-12-19T03:01:45.865Z,101449.53
2022-12-19T03:04:23.246Z,101441.63
2022-12-19T03:06:54.902Z,101442.28
2022-12-19T03:09:29.369Z,101441.59
2022-12-19T03:12:00.418Z,101436.81
2022-12-19T03:14:29.676Z,101437.09
2022-12-19T03:16:59.271Z,101432.44
2022-12-19T03:19:31.429Z,101433.84
2022-12-19T03:22:01.013Z,101436.44
2022-12-19T03:24:30.582Z,101441.63
2022-12-19T03:27:04.171Z,101447.69
2022-12-19T03:29:35.443Z,101440.41
2022-12-19T03:32:06.327Z,101438.97
2022-12-19T03:34:41.125Z,101438.25
2022-12-19T03:37:13.277Z,101441.22
2022-12-19T03:39:42.877Z,101438.25
2022-12-19T03:42:25.081Z,101441.94
2022-12-19T03:44:54.825Z,101437.66
2022-12-19T03:47:26.601Z,101430.56
2022-12-19T03:49:58.757Z,101431.09
2022-12-19T03:52:30.534Z,101431.94
2022-12-19T03:55:04.031Z,101420.66
2022-12-19T03:57:36.146Z,101431.34
2022-12-19T04:00:07.774Z,101432.22
2022-12-19T04:02:37.906Z,101429.63
2022-12-19T04:05:10.846Z,101424.09
2022-12-19T04:07:40.516Z,101418.59
2022-12-19T04:10:12.126Z,101415.25
2022-12-19T04:12:43.538Z,101414.16
2022-12-19T04:15:13.897Z,101406.19
2022-12-19T04:17:44.981Z,101401.88
2022-12-19T04:20:17.753Z,101399.56
2022-12-19T04:22:51.804Z,101401.25
2022-12-19T04:25:27.841Z,101390.25
2022-12-19T04:28:00.207Z,101402.44
2022-12-19T04:30:30.260Z,101405.78
2022-12-19T04:33:07.936Z,101398.72
2022-12-19T04:35:40.178Z,101393.50
2022-12-19T04:38:09.677Z,101397.78
2022-12-19T04:40:41.521Z,101396.97
2022-12-19T04:43:11.674Z,101397.78
2022-12-19T04:45:42.015Z,101396.59
2022-12-19T04:48:12.019Z,101398.97
2022-12-19T04:50:44.146Z,101401.78
2022-12-19T04:53:13.804Z,101393.28
2022-12-19T04:55:44.257Z,101381.59
2022-12-19T04:58:18.945Z,101389.94
2022-12-19T05:00:51.125Z,101371.84
2022-12-19T05:03:20.688Z,101378.09
2022-12-19T05:05:52.876Z,101377.22
2022-12-19T05:08:22.445Z,101384.34
2022-12-19T05:10:51.953Z,101382.84
2022-12-19T05:13:21.524Z,101376.28
2022-12-19T05:15:58.720Z,101362.31
2022-12-19T05:18:28.287Z,101364.91
2022-12-19T05:21:00.432Z,101358.50
2022-12-19T05:23:30.074Z,101359.91
2022-12-19T05:26:00.493Z,101360.66
2022-12-19T05:28:30.196Z,101368.13
2022-12-19T05:31:05.573Z,101368.50
2022-12-19T05:33:35.131Z,101369.06
2022-12-19T05:36:08.515Z,101369.59
2022-12-19T05:38:38.283Z,101376.09
2022-12-19T05:41:09.927Z,101372.81
2022-12-19T05:43:39.501Z,101371.97
2022-12-19T05:46:09.287Z,101374.06
2022-12-19T05:48:39.193Z,101368.13
2022-12-19T05:51:11.428Z,101379.25
2022-12-19T05:53:41.680Z,101367.69
2022-12-19T05:56:12.076Z,101366.03
2022-12-19T05:58:41.886Z,101372.38
2022-12-19T06:01:12.521Z,101379.59
2022-12-19T06:03:42.148Z,101384.13
2022-12-19T06:06:16.033Z,101383.88
2022-12-19T06:08:45.618Z,101378.78
2022-12-19T06:11:15.293Z,101384.81
2022-12-19T06:13:44.791Z,101395.88
2022-12-19T06:16:15.516Z,101391.31
2022-12-19T06:18:45.970Z,101401.72
2022-12-19T06:21:18.920Z,101389.56
2022-12-19T06:23:48.573Z,101397.72
2022-12-19T06:26:20.183Z,101388.28
2022-12-19T06:28:49.976Z,101382.53
2022-12-19T06:31:19.619Z,101386.22
2022-12-19T06:33:49.099Z,101389.91
2022-12-19T06:36:22.439Z,101382.06
2022-12-19T06:38:52.274Z,101387.28
2022-12-19T06:41:34.302Z,101387.34
2022-12-19T06:44:04.451Z,101380.31
2022-12-19T06:46:33.981Z,101382.00
2022-12-19T06:49:03.622Z,101371.06
2022-12-19T06:51:35.659Z,101368.28
2022-12-19T06:54:05.155Z,101362.75
2022-12-19T06:56:37.067Z,101362.38
2022-12-19T06:59:06.576Z,101371.41
2022-12-19T07:01:42.221Z,101362.47
2022-12-19T07:04:11.942Z,101363.38
2022-12-19T07:06:48.843Z,101366.41
2022-12-19T07:09:18.755Z,101365.56
2022-12-19T07:11:48.194Z,101352.59
2022-12-19T07:14:17.685Z,101352.59
2022-12-19T07:16:47.135Z,101357.78
2022-12-19T07:19:16.778Z,101349.16
2022-12-19T07:21:48.840Z,101351.66
2022-12-19T07:24:18.285Z,101365.75
2022-12-19T07:26:47.744Z,101375.25
2022-12-19T07:29:17.175Z,101377.41
2022-12-19T07:31:46.737Z,101364.41
2022-12-19T07:34:16.291Z,101360.25
2022-12-19T07:36:48.381Z,101358.75
2022-12-19T07:39:17.818Z,101357.28
2022-12-19T07:41:47.286Z,101354.97
2022-12-19T07:44:16.753Z,101360.81
2022-12-19T07:46:46.274Z,101365.28
2022-12-19T07:49:19.658Z,101369.03
2022-12-19T07:51:54.540Z,101374.94
2022-12-19T07:54:23.961Z,101367.78
2022-12-19T07:56:53.500Z,101361.44
2022-12-19T07:59:28.942Z,101373.69
2022-12-19T08:02:00.081Z,101377.47
2022-12-19T08:04:29.626Z,101372.97
2022-12-19T08:07:02.324Z,101378.34
2022-12-19T08:09:31.848Z,101367.66
2022-12-19T08:12:01.522Z,101358.09
2022-12-19T08:14:31.027Z,101364.75
2022-12-19T08:19:49.951Z,101365.16
2022-12-19T08:22:21.989Z,101361.56
2022-12-19T08:24:51.572Z,101359.75
2022-12-19T08:27:21.258Z,101361.22
2022-12-19T08:29:50.739Z,101356.84
2022-12-19T08:32:21.408Z,101358.97
2022-12-19T08:34:51.244Z,101362.19
2022-12-19T08:37:23.395Z,101361.09
2022-12-19T08:39:52.991Z,101362.66
2022-12-19T08:42:22.528Z,101368.19
2022-12-19T08:44:52.086Z,101355.88
2022-12-19T08:47:21.605Z,101356.47
2022-12-19T08:49:51.177Z,101350.63
2022-12-19T08:52:23.587Z,101345.75
2022-12-19T08:54:53.045Z,101344.16
2022-12-19T08:57:22.495Z,101348.44
2022-12-19T08:59:52.038Z,101343.56
2022-12-19T09:02:22.657Z,101342.19
2022-12-19T09:06:01.001Z,101343.41
2022-12-19T09:07:44.457Z,101337.88
2022-12-19T09:10:14.015Z,101349.94
2022-12-19T09:12:45.371Z,101349.94
2022-12-19T09:15:15.298Z,101344.41
2022-12-19T09:17:44.807Z,101343.97
2022-12-19T09:20:21.243Z,101347.78
2022-12-19T09:22:55.331Z,101348.78
2022-12-19T09:25:24.896Z,101349.13
2022-12-19T09:28:26.390Z,101342.88
2022-12-19T09:30:43.933Z,101347.81
2022-12-19T09:33:13.576Z,101332.03
2022-12-19T09:35:43.135Z,101336.91
2022-12-19T09:38:15.230Z,101350.16
2022-12-19T09:40:50.585Z,101358.19
2022-12-19T09:43:23.755Z,101348.00
2022-12-19T09:45:56.685Z,101347.06
2022-12-19T09:48:26.571Z,101343.06
2022-12-19T09:51:09.585Z,101352.38
2022-12-19T09:53:54.497Z,101340.34
2022-12-19T09:56:40.185Z,101333.06
2022-12-19T09:59:17.173Z,101318.53
2022-12-19T10:01:52.753Z,101324.72
2022-12-19T10:04:22.432Z,101327.53
2022-12-19T10:07:18.250Z,101328.19
2022-12-19T10:12:18.076Z,101328.63
2022-12-19T10:12:50.947Z,101327.00
2022-12-19T10:15:26.012Z,101306.56
2022-12-19T10:18:06.273Z,101315.13
2022-12-19T10:20:38.528Z,101316.16
2022-12-19T10:23:15.496Z,101306.03
2022-12-19T10:25:59.729Z,101320.84
2022-12-19T10:28:44.889Z,101308.25
2022-12-19T10:31:21.832Z,101314.59
2022-12-19T10:33:55.107Z,101312.28
2022-12-19T10:36:48.558Z,101301.97
2022-12-19T10:39:18.059Z,101296.28
2022-12-19T10:41:50.224Z,101287.22
2022-12-19T10:44:19.791Z,101286.59
2022-12-19T10:46:50.045Z,101284.53
2022-12-19T10:49:21.852Z,101291.09
2022-12-19T10:52:01.628Z,101299.63
2022-12-19T10:54:44.016Z,101293.03
2022-12-19T10:57:27.059Z,101276.94
2022-12-19T11:00:00.731Z,101273.84
2022-12-19T11:02:37.339Z,101281.47
2022-12-19T11:05:08.665Z,101279.91
2022-12-19T11:07:38.231Z,101281.25
2022-12-19T11:11:16.888Z,101275.22
2022-12-19T11:18:13.822Z,101260.06
2022-12-19T11:24:38.722Z,101265.47
2022-12-19T11:29:15.184Z,101276.16
2022-12-19T11:30:09.083Z,101273.19
2022-12-19T11:30:42.998Z,101261.56
2022-12-19T11:30:48.669Z,101263.13
2022-12-19T11:34:06.049Z,101264.56
2022-12-19T11:36:39.222Z,101268.81
2022-12-19T11:39:08.854Z,101264.19
2022-12-19T11:41:41.927Z,101257.44
2022-12-19T11:44:14.624Z,101256.25
2022-12-19T11:46:48.234Z,101253.66
2022-12-19T11:49:24.240Z,101250.81
2022-12-19T11:51:57.521Z,101248.06
2022-12-19T11:54:28.407Z,101252.41
2022-12-19T11:56:58.541Z,101242.03
2022-12-19T11:59:32.313Z,101238.25
2022-12-19T12:02:12.932Z,101233.03
2022-12-19T12:05:04.406Z,101228.06
2022-12-19T12:09:16.363Z,101226.50
2022-12-19T12:16:12.552Z,101229.16
2022-12-19T12:21:07.922Z,101224.03
2022-12-19T12:30:37.285Z,101210.66
2022-12-19T12:31:19.239Z,101210.75
2022-12-19T12:31:50.629Z,101216.81
2022-12-19T12:31:50.992Z,101210.53
2022-12-19T12:31:52.735Z,101208.63
2022-12-19T12:31:58.475Z,101210.75
2022-12-19T12:35:32.769Z,101212.66
2022-12-19T12:39:24.332Z,101208.16
2022-12-19T12:42:07.536Z,101203.53
2022-12-19T12:44:44.841Z,101197.03
2022-12-19T12:47:18.199Z,101200.94
2022-12-19T12:49:48.523Z,101197.94
2022-12-19T12:52:22.273Z,101197.38
2022-12-19T12:54:51.856Z,101203.16
2022-12-19T12:57:22.839Z,101190.97
2022-12-19T12:59:53.747Z,101192.22
2022-12-19T13:02:24.683Z,101185.34
2022-12-19T13:04:58.130Z,101178.50
2022-12-19T13:07:39.023Z,101173.31
2022-12-19T13:10:20.523Z,101182.06
2022-12-19T13:13:04.394Z,101175.94
2022-12-19T13:15:44.124Z,101173.94
2022-12-19T13:18:32.705Z,101183.19
2022-12-19T13:21:02.808Z,101185.22
2022-12-19T13:23:50.927Z,101179.06
2022-12-19T13:26:49.356Z,101179.34
2022-12-19T13:29:33.529Z,101169.00
2022-12-19T13:32:13.621Z,101166.25
2022-12-19T13:34:50.486Z,101177.09
2022-12-19T13:39:47.687Z,101176.53
2022-12-19T13:40:33.063Z,101174.97
2022-12-19T13:43:17.791Z,101167.50
2022-12-19T13:45:51.709Z,101170.28
2022-12-19T13:48:27.294Z,101180.94
2022-12-19T13:50:56.812Z,101170.50
2022-12-19T13:53:27.898Z,101180.69
2022-12-19T13:56:01.467Z,101175.56
2022-12-19T13:58:32.475Z,101171.09
2022-12-19T14:01:03.879Z,101187.47
2022-12-19T14:03:38.826Z,101187.91
2022-12-19T14:06:17.542Z,101191.75
2022-12-19T14:08:59.203Z,101189.16
2022-12-19T14:13:44.921Z,101172.53
2022-12-19T14:14:45.021Z,101183.63
2022-12-19T14:17:16.212Z,101174.84
2022-12-19T14:19:46.758Z,101178.41
2022-12-19T14:22:24.691Z,101174.56
2022-12-19T14:25:45.238Z,101177.50
2022-12-19T14:28:19.528Z,101180.22
2022-12-19T14:30:43.571Z,101168.34
2022-12-19T14:33:44.501Z,101184.59
2022-12-19T14:36:16.018Z,101177.91
2022-12-19T14:39:25.475Z,101174.94
2022-12-19T14:42:00.400Z,101178.00
2022-12-19T14:52:51.901Z,101167.44
2022-12-19T14:54:14.924Z,101163.50
2022-12-19T14:54:24.479Z,101170.28
2022-12-19T14:54:47.597Z,101179.81
2022-12-19T14:59:04.855Z,101166.72
2022-12-19T15:01:37.160Z,101168.66
2022-12-19T15:04:50.230Z,101174.94
2022-12-19T15:07:08.494Z,101166.16
2022-12-19T15:11:01.105Z,101150.38
2022-12-19T15:14:46.907Z,101165.19
2022-12-19T15:15:42.527Z,101161.78
2022-12-19T15:18:25.772Z,101164.63
2022-12-19T15:20:56.311Z,101165.81
2022-12-19T15:23:26.141Z,101147.81
2022-12-19T15:26:05.062Z,101151.25
2022-12-19T15:28:40.100Z,101143.50
2022-12-19T15:31:15.760Z,101145.53
2022-12-19T15:34:14.890Z,101150.44
2022-12-19T15:36:37.237Z,101137.63
2022-12-19T15:39:06.948Z,101148.06
2022-12-19T15:41:36.426Z,101127.59
2022-12-19T15:44:08.754Z,101129.47
2022-12-19T15:46:44.473Z,101138.59
2022-12-19T15:49:19.852Z,101133.38
2022-12-19T15:51:49.351Z,101139.41
2022-12-19T15:57:09.381Z,101135.28
2022-12-19T15:59:39.764Z,101123.75
2022-12-19T16:02:18.562Z,101136.78
2022-12-19T16:04:51.263Z,101143.13
2022-12-19T16:07:21.879Z,101137.91
2022-12-19T16:09:52.808Z,101124.00
2022-12-19T16:12:24.887Z,101100.28
2022-12-19T16:14:57.897Z,101118.41
2022-12-19T16:17:27.700Z,101137.63
2022-12-19T16:19:59.788Z,101124.13
2022-12-19T16:22:30.370Z,101112.06
2022-12-19T16:24:59.869Z,101100.41
2022-12-19T16:27:29.976Z,101105.25
2022-12-19T16:29:59.948Z,101099.06
2022-12-19T16:32:29.407Z,101095.50
2022-12-19T16:35:01.503Z,101097.81
2022-12-19T16:37:32.589Z,101090.00
2022-12-19T16:40:02.266Z,101095.38
2022-12-19T16:42:31.770Z,101090.16
2022-12-19T16:45:01.188Z,101098.38
2022-12-19T16:47:30.801Z,101098.63
2022-12-19T16:50:02.975Z,101107.41
2022-12-19T16:52:34.980Z,101104.69
2022-12-19T16:55:08.923Z,101094.44
2022-12-19T16:57:38.350Z,101092.88
2022-12-19T17:00:11.108Z,101103.66
2022-12-19T17:02:43.861Z,101095.38
2022-12-19T17:05:23.932Z,101091.06
2022-12-19T17:07:53.564Z,101096.91
2022-12-19T17:10:26.385Z,101099.91
2022-12-19T17:12:56.112Z,101095.19
2022-12-19T17:15:28.164Z,101100.16
2022-12-19T17:17:59.159Z,101100.88
2022-12-19T17:20:31.484Z,101101.50
2022-12-19T17:23:01.005Z,101101.06
2022-12-19T17:25:30.468Z,101097.19
2022-12-19T17:27:59.895Z,101088.75
2022-12-19T17:30:29.403Z,101104.16
2022-12-19T17:32:58.940Z,101108.88
2022-12-19T17:35:31.014Z,101100.81
2022-12-19T17:38:00.687Z,101103.09
2022-12-19T17:40:31.116Z,101089.59
2022-12-19T17:43:00.726Z,101099.16
2022-12-19T17:45:31.596Z,101105.06
2022-12-19T17:48:03.176Z,101089.28
2022-12-19T17:50:37.990Z,101099.63
2022-12-19T17:53:08.492Z,101083.13
2022-12-19T17:55:38.043Z,101077.78
2022-12-19T17:58:08.034Z,101081.34
2022-12-19T18:00:37.606Z,101089.19
2022-12-19T18:03:12.977Z,101092.72
2022-12-19T18:05:45.523Z,101091.91
2022-12-19T18:08:27.284Z,101079.44
2022-12-19T18:10:57.102Z,101076.94
2022-12-19T18:13:26.596Z,101078.47
2022-12-19T18:15:57.089Z,101081.75
2022-12-19T18:18:29.309Z,101085.66
2022-12-19T18:21:01.564Z,101092.34
2022-12-19T18:23:31.135Z,101081.66
2022-12-19T18:26:02.162Z,101074.34
2022-12-19T18:28:32.645Z,101074.97
2022-12-19T18:31:03.293Z,101087.25
2022-12-19T18:33:35.794Z,101070.91
2022-12-19T18:36:08.414Z,101078.47
2022-12-19T18:38:37.885Z,101065.31
2022-12-19T18:41:07.669Z,101059.00
2022-12-19T18:43:37.162Z,101057.19
2022-12-19T18:46:07.071Z,101046.19
2022-12-19T18:48:37.142Z,101045.69
2022-12-19T18:51:09.319Z,101050.97
2022-12-19T18:53:38.912Z,101054.59
2022-12-19T18:56:08.796Z,101053.38
2022-12-19T18:58:38.315Z,101060.69
2022-12-19T19:01:08.700Z,101079.13
2022-12-19T19:03:39.158Z,101078.66
2022-12-19T19:06:16.782Z,101079.59
2022-12-19T19:08:46.280Z,101075.03
2022-12-19T19:11:15.746Z,101076.53
2022-12-19T19:13:45.270Z,101069.44
2022-12-19T19:16:17.866Z,101071.09
2022-12-19T19:18:47.553Z,101074.53
2022-12-19T19:21:19.581Z,101064.72
2022-12-19T19:23:50.323Z,101066.25
2022-12-19T19:26:19.787Z,101057.34
2022-12-19T19:28:52.564Z,101059.00
2022-12-19T19:31:23.461Z,101058.19
2022-12-19T19:33:55.418Z,101058.88
2022-12-19T19:36:29.239Z,101064.34
2022-12-19T19:38:58.931Z,101073.94
2022-12-19T19:41:30.166Z,101063.41
2022-12-19T19:43:59.927Z,101071.22
2022-12-19T19:46:29.744Z,101069.69
2022-12-19T19:48:59.698Z,101076.31
2022-12-19T19:51:32.271Z,101064.66
2022-12-19T19:54:01.733Z,101060.47
2022-12-19T19:56:31.181Z,101056.88
2022-12-19T19:59:00.763Z,101062.03
2022-12-19T20:01:31.014Z,101074.59
2022-12-19T20:04:00.617Z,101070.91
2022-12-19T20:06:32.757Z,101079.09
2022-12-19T20:09:02.359Z,101086.47
2022-12-19T20:11:31.871Z,101079.50
2022-12-19T20:14:01.308Z,101076.75
2022-12-19T20:16:30.846Z,101083.50
2022-12-19T20:19:00.347Z,101083.44
2022-12-19T20:21:33.427Z,101079.16
2022-12-19T20:24:02.865Z,101074.09
2022-12-19T20:26:32.344Z,101070.97
2022-12-19T20:29:01.806Z,101074.69
2022-12-19T20:31:32.495Z,101068.41
2022-12-19T20:34:02.145Z,101066.88
2022-12-19T20:36:34.235Z,101071.72
2022-12-19T20:39:03.709Z,101073.38
2022-12-19T20:41:33.673Z,101087.81
2022-12-19T20:44:03.147Z,101092.59
2022-12-19T20:46:32.760Z,101092.34
2022-12-19T20:49:02.314Z,101084.50
2022-12-19T20:51:34.377Z,101081.88
2022-12-19T20:54:04.794Z,101086.31
2022-12-19T20:56:35.208Z,101090.44
2022-12-19T20:59:04.736Z,101093.41
2022-12-19T21:01:34.374Z,101098.38
2022-12-19T21:04:04.068Z,101092.28
2022-12-19T21:06:38.026Z,101081.00
2022-12-19T21:09:07.667Z,101086.50
2022-12-19T21:11:37.323Z,101093.94
2022-12-19T21:14:08.026Z,101090.03
2022-12-19T21:16:37.950Z,101086.97
2022-12-19T21:19:07.568Z,101105.63
2022-12-19T21:21:39.733Z,101102.59
2022-12-19T21:24:09.563Z,101093.09
2022-12-19T21:26:39.074Z,101094.06
2022-12-19T21:29:08.531Z,101106.38
2022-12-19T21:31:38.066Z,101106.66
2022-12-19T21:34:07.531Z,101105.38
2022-12-19T21:36:39.666Z,101094.38
2022-12-19T21:39:09.179Z,101095.38
2022-12-19T21:41:38.669Z,101100.38
2022-12-19T21:44:08.145Z,101089.94
2022-12-19T21:46:38.151Z,101095.94
2022-12-19T21:49:08.786Z,101101.44
2022-12-19T21:51:43.562Z,101113.91
2022-12-19T21:54:13.012Z,101111.56
2022-12-19T21:56:42.764Z,101105.00
2022-12-19T21:59:14.185Z,101104.34
2022-12-19T22:01:43.952Z,101099.06
2022-12-19T22:04:14.716Z,101106.66
2022-12-19T22:06:46.845Z,101102.84
2022-12-19T22:09:17.859Z,101108.97
2022-12-19T22:11:47.192Z,101100.09
2022-12-19T22:14:17.087Z,101104.44
2022-12-19T22:16:46.696Z,101101.44
2022-12-19T22:19:16.460Z,101101.75
2022-12-19T22:21:48.782Z,101094.91
2022-12-19T22:24:20.004Z,101086.53
2022-12-19T22:26:49.518Z,101083.69
2022-12-19T22:29:19.329Z,101080.69
2022-12-19T22:31:49.632Z,101071.03
2022-12-19T22:34:20.106Z,101069.03
2022-12-19T22:36:53.131Z,101057.22
2022-12-19T22:39:22.797Z,101070.28
2022-12-19T22:41:52.229Z,101064.38
2022-12-19T22:44:23.261Z,101072.97
2022-12-19T22:46:52.452Z,101073.88
2022-12-19T22:49:21.945Z,101077.94
2022-12-19T22:51:53.988Z,101063.94
2022-12-19T22:54:23.440Z,101071.03
2022-12-19T22:56:53.386Z,101068.63
2022-12-19T22:59:22.929Z,101066.78
2022-12-19T23:01:53.031Z,101064.28
2022-12-19T23:04:22.869Z,101066.06
2022-12-19T23:06:55.027Z,101067.09
2022-12-19T23:09:24.491Z,101061.75
2022-12-19T23:11:54.255Z,101056.25
2022-12-19T23:14:23.831Z,101063.72
2022-12-19T23:16:53.465Z,101070.47
2022-12-19T23:19:23.051Z,101065.38
2022-12-19T23:21:55.349Z,101059.19
2022-12-19T23:24:24.891Z,101062.63
2022-12-19T23:26:55.778Z,101052.06
2022-12-19T23:29:25.596Z,101051.66
2022-12-19T23:31:55.165Z,101045.06
2022-12-19T23:34:24.763Z,101042.63
2022-12-19T23:37:12.935Z,101043.28
2022-12-19T23:39:42.708Z,101047.84
2022-12-19T23:42:12.250Z,101031.19
2022-12-19T23:44:41.943Z,101011.66
2022-12-19T23:47:11.489Z,101026.91
2022-12-19T23:49:41.413Z,101032.84
2022-12-19T23:52:13.573Z,101009.97
2022-12-19T23:54:43.106Z,101016.44
2022-12-19T23:57:12.643Z,101012.63
2022-12-19T23:59:42.218Z,101005.47
